Time;durP1;ratioP1;P1;durP2;ratioP2;P2;SDS_P1;SDS_P2;PMS_P1;PMS_P2;Temp;Humidity;BMP_temperature;BMP_pressure;BME280_temperature;BME280_humidity;BME280_pressure;Samples;Min_cycle;Max_cycle;Signal;HPM_P1;HPM_P2
2022/08/24 00:00:14;;;;;;;8.77;4.63;;;;;;;14.60;100.00;96808.69;4992224;28;20562;-63
2022/08/24 00:02:40;;;;;;;6.00;3.90;;;;;;;14.60;100.00;96805.91;4991916;28;20510;-64
2022/08/24 00:05:06;;;;;;;6.07;4.13;;;;;;;14.58;100.00;96813.78;4991999;28;20036;-62
2022/08/24 00:07:33;;;;;;;7.40;4.78;;;;;;;14.57;100.00;96807.47;4983133;28;20118;-63
2022/08/24 00:09:59;;;;;;;5.53;4.20;;;;;;;14.50;100.00;96796.44;4980209;28;20034;-63
2022/08/24 00:12:25;;;;;;;5.85;4.63;;;;;;;14.48;100.00;96796.81;4972267;28;20042;-64
2022/08/24 00:14:50;;;;;;;7.80;4.40;;;;;;;14.52;100.00;96799.56;4972938;28;20039;-64
2022/08/24 00:17:16;;;;;;;5.75;4.50;;;;;;;14.53;100.00;96801.94;4983500;28;20498;-64
2022/08/24 00:19:42;;;;;;;9.00;4.60;;;;;;;14.45;100.00;96805.84;4986439;28;20513;-64
2022/08/24 00:22:08;;;;;;;7.20;5.38;;;;;;;13.85;100.00;96801.69;4982292;28;20023;-63
2022/08/24 00:24:35;;;;;;;6.28;5.10;;;;;;;13.81;100.00;96797.34;4992163;28;20034;-63
2022/08/24 00:27:00;;;;;;;8.95;6.03;;;;;;;13.69;100.00;96801.22;4993816;28;20770;-64
2022/08/24 00:29:26;;;;;;;10.30;5.35;;;;;;;13.70;100.00;96800.03;4994665;28;20034;-63
2022/08/24 00:31:51;;;;;;;7.93;4.85;;;;;;;13.87;100.00;96795.81;4984034;28;20114;-63
2022/08/24 00:34:17;;;;;;;11.50;5.70;;;;;;;13.90;100.00;96800.53;4988014;28;20070;-63
2022/08/24 00:36:44;;;;;;;7.57;5.25;;;;;;;13.92;100.00;96800.94;4976804;28;20050;-63
2022/08/24 00:39:11;;;;;;;7.22;5.38;;;;;;;14.04;100.00;96799.81;4976007;28;20022;-63
2022/08/24 00:41:42;;;;;;;6.85;5.13;;;;;;;14.13;100.00;96803.81;4975798;28;20050;-63
2022/08/24 00:44:07;;;;;;;8.07;4.60;;;;;;;14.19;100.00;96797.88;4976080;28;20039;-63
2022/08/24 00:46:54;;;;;;;6.55;4.82;;;;;;;14.16;100.00;96799.47;4982099;28;20030;-63
2022/08/24 00:49:33;;;;;;;6.32;4.50;;;;;;;14.19;100.00;96795.94;4981752;28;20026;-62
2022/08/24 00:52:23;;;;;;;9.38;5.35;;;;;;;14.13;100.00;96791.97;4993479;28;20069;-63
2022/08/24 00:54:55;;;;;;;5.97;4.43;;;;;;;14.06;100.00;96795.50;4994971;28;20022;-63
2022/08/24 00:57:26;;;;;;;6.47;4.65;;;;;;;13.90;100.00;96795.81;5001895;28;20446;-63
2022/08/24 00:59:57;;;;;;;6.63;5.43;;;;;;;13.49;100.00;96786.94;5003873;28;20615;-63
2022/08/24 01:02:31;;;;;;;9.85;4.88;;;;;;;13.27;100.00;96786.78;4984031;28;20450;-63
2022/08/24 01:05:04;;;;;;;11.32;5.75;;;;;;;12.78;100.00;96790.69;4993297;28;20030;-63
2022/08/24 01:07:31;;;;;;;11.30;6.43;;;;;;;12.56;100.00;96782.22;4994395;28;20084;-64
2022/08/24 01:10:00;;;;;;;13.90;6.55;;;;;;;12.54;100.00;96784.56;4994445;28;20080;-62
2022/08/24 01:12:30;;;;;;;8.50;6.90;;;;;;;12.43;100.00;96783.69;4994467;28;20096;-62
2022/08/24 01:14:58;;;;;;;9.25;7.25;;;;;;;12.39;100.00;96783.63;4993146;28;20041;-62
2022/08/24 01:20:10;;;;;;;9.70;7.20;;;;;;;12.49;100.00;96781.38;4955960;29;20038;-62
2022/08/24 01:22:35;;;;;;;9.15;6.65;;;;;;;12.50;100.00;96777.47;4955647;28;20052;-63
2022/08/24 01:25:01;;;;;;;10.27;6.32;;;;;;;12.58;100.00;96779.88;4980178;28;20637;-64
2022/08/24 01:27:27;;;;;;;8.15;6.07;;;;;;;12.74;100.00;96773.38;4988612;28;20042;-63
2022/08/24 01:29:54;;;;;;;10.90;5.80;;;;;;;12.84;100.00;96782.88;4994268;28;20041;-64
2022/08/24 01:32:23;;;;;;;6.72;5.68;;;;;;;12.98;100.00;96783.00;4994134;28;20030;-61
2022/08/24 01:34:48;;;;;;;10.93;5.55;;;;;;;13.15;100.00;96782.34;4994090;28;20030;-63
2022/08/24 01:37:14;;;;;;;6.40;5.43;;;;;;;13.31;100.00;96770.31;4992461;28;20042;-63
2022/08/24 01:39:43;;;;;;;10.60;5.38;;;;;;;13.38;100.00;96775.88;4981280;28;20034;-63
2022/08/24 01:42:09;;;;;;;6.38;5.30;;;;;;;13.45;100.00;96778.66;4955151;28;20480;-63
2022/08/24 01:44:37;;;;;;;7.85;5.22;;;;;;;13.44;100.00;96784.56;4954631;28;20130;-63
2022/08/24 01:47:04;;;;;;;8.00;5.50;;;;;;;13.42;100.00;96781.41;4969292;28;20499;-63
2022/08/24 01:49:31;;;;;;;11.10;5.68;;;;;;;13.46;100.00;96780.22;4970105;28;20042;-63
2022/08/24 01:51:57;;;;;;;6.35;4.88;;;;;;;13.31;100.00;96775.81;4954889;28;20560;-63
2022/08/24 01:54:24;;;;;;;7.78;4.82;;;;;;;13.18;100.00;96778.84;4982526;28;20106;-63
2022/08/24 01:56:49;;;;;;;7.22;5.38;;;;;;;13.14;100.00;96783.53;4991255;28;20089;-62
2022/08/24 01:59:15;;;;;;;6.80;5.13;;;;;;;13.22;100.00;96778.06;4990937;28;20453;-63
2022/08/24 02:01:45;;;;;;;10.40;5.38;;;;;;;13.36;100.00;96773.50;4982134;28;20052;-65
2022/08/24 02:04:11;;;;;;;9.55;5.00;;;;;;;13.48;100.00;96774.34;4955054;28;20038;-64
2022/08/24 02:06:37;;;;;;;7.40;5.15;;;;;;;13.50;100.00;96774.75;4970508;28;20030;-65
2022/08/24 02:09:03;;;;;;;8.10;4.82;;;;;;;13.45;100.00;96769.59;4985294;28;20513;-65
2022/08/24 02:11:29;;;;;;;7.07;5.00;;;;;;;13.51;100.00;96773.59;4993573;28;20030;-65
2022/08/24 02:13:55;;;;;;;7.65;5.50;;;;;;;13.49;100.00;96770.44;4992311;28;20061;-65
2022/08/24 02:16:20;;;;;;;8.43;5.15;;;;;;;13.48;100.00;96772.38;4993845;28;20030;-64
2022/08/24 02:18:45;;;;;;;7.90;4.85;;;;;;;13.48;100.00;96777.88;4994180;28;20479;-62
2022/08/24 02:21:12;;;;;;;7.45;5.32;;;;;;;13.48;100.00;96782.59;4987282;28;20053;-63
2022/08/24 02:23:40;;;;;;;8.57;5.00;;;;;;;13.47;100.00;96779.06;4985233;28;20061;-64
2022/08/24 02:26:08;;;;;;;6.00;4.60;;;;;;;13.47;100.00;96779.06;4991851;28;20038;-64
2022/08/24 02:28:34;;;;;;;6.45;4.90;;;;;;;13.54;100.00;96784.63;4993286;28;20097;-64
2022/08/24 02:31:00;;;;;;;8.52;5.50;;;;;;;13.55;100.00;96777.16;4993103;28;20487;-63
2022/08/24 02:33:26;;;;;;;8.05;5.57;;;;;;;13.52;100.00;96773.22;4993088;28;20035;-64
2022/08/24 02:35:53;;;;;;;6.43;5.30;;;;;;;13.33;100.00;96782.50;4983295;28;20050;-63
2022/08/24 02:38:19;;;;;;;10.18;5.00;;;;;;;13.32;100.00;96782.88;4985101;28;20479;-64
2022/08/24 02:40:45;;;;;;;9.43;5.10;;;;;;;13.30;100.00;96790.72;4993183;28;20030;-64
2022/08/24 02:43:10;;;;;;;9.23;5.30;;;;;;;13.29;100.00;96787.19;4992837;28;20041;-64
2022/08/24 02:45:42;;;;;;;7.68;5.05;;;;;;;13.32;100.00;96789.16;4995891;28;20036;-64
2022/08/24 02:48:07;;;;;;;6.05;5.32;;;;;;;13.38;100.00;96786.88;4996511;28;20502;-64
2022/08/24 02:50:37;;;;;;;9.63;5.13;;;;;;;13.38;100.00;96784.91;4980173;28;20035;-64
2022/08/24 02:53:03;;;;;;;8.70;5.75;;;;;;;13.26;100.00;96785.19;4991820;28;20048;-65
2022/08/24 02:55:28;;;;;;;9.52;5.68;;;;;;;13.21;100.00;96780.03;4992706;28;20124;-63
2022/08/24 02:57:53;;;;;;;7.30;5.50;;;;;;;13.03;100.00;96790.13;4993314;28;20038;-64
2022/08/24 03:00:20;;;;;;;8.18;5.65;;;;;;;13.00;100.00;96786.97;4993456;28;20113;-64
2022/08/24 03:02:46;;;;;;;7.70;5.45;;;;;;;13.00;100.00;96781.47;5008596;28;20080;-64
2022/08/24 03:05:13;;;;;;;10.38;5.80;;;;;;;12.87;100.00;96790.38;4981815;28;20428;-63
2022/08/24 03:07:38;;;;;;;8.80;5.55;;;;;;;12.90;100.00;96787.66;4994366;28;20034;-64
2022/08/24 03:10:05;;;;;;;9.38;5.40;;;;;;;12.87;100.00;96776.63;4997939;28;20039;-63
2022/08/24 03:12:31;;;;;;;6.80;5.78;;;;;;;12.92;100.00;96784.53;4992859;28;20553;-63
2022/08/24 03:14:57;;;;;;;9.98;5.53;;;;;;;12.80;100.00;96791.91;4992665;28;20034;-64
2022/08/24 03:17:22;;;;;;;10.15;5.28;;;;;;;12.82;100.00;96780.53;4983674;28;20076;-67
2022/08/24 03:19:49;;;;;;;7.57;5.80;;;;;;;12.73;100.00;96777.28;4984040;28;20026;-65
2022/08/24 03:22:14;;;;;;;9.23;4.95;;;;;;;12.71;100.00;96780.44;4992312;28;20144;-63
2022/08/24 03:24:40;;;;;;;11.93;5.40;;;;;;;12.72;100.00;96786.72;4992495;28;20447;-64
2022/08/24 03:27:06;;;;;;;8.77;5.63;;;;;;;12.54;100.00;96784.56;4989416;28;20029;-64
2022/08/24 03:29:33;;;;;;;8.68;5.80;;;;;;;12.25;100.00;96791.72;4980764;28;20594;-64
2022/08/24 03:31:59;;;;;;;9.82;5.82;;;;;;;12.12;100.00;96782.97;4991022;28;20041;-64
2022/08/24 03:34:24;;;;;;;7.93;5.43;;;;;;;12.10;100.00;96785.28;4991988;28;20026;-67
2022/08/24 03:36:50;;;;;;;9.65;6.05;;;;;;;12.06;100.00;96778.94;4991816;28;20034;-64
2022/08/24 03:39:16;;;;;;;9.52;5.68;;;;;;;12.13;100.00;96784.53;4992073;28;20052;-64
2022/08/24 03:41:41;;;;;;;6.75;5.20;;;;;;;12.22;100.00;96781.47;4991440;28;20731;-65
2022/08/24 03:44:07;;;;;;;7.72;4.88;;;;;;;12.34;100.00;96774.97;4979729;28;20122;-63
2022/08/24 03:46:35;;;;;;;6.63;5.25;;;;;;;12.27;100.00;96774.88;4986991;28;20030;-64
2022/08/24 03:49:04;;;;;;;6.90;5.07;;;;;;;12.38;100.00;96775.78;4991733;28;20040;-63
2022/08/24 03:51:29;;;;;;;6.45;5.18;;;;;;;12.40;100.00;96771.47;4991556;28;20038;-64
2022/08/24 03:53:57;;;;;;;8.88;5.43;;;;;;;12.31;100.00;96767.47;4992167;28;20555;-64
2022/08/24 03:56:23;;;;;;;8.18;5.32;;;;;;;12.30;100.00;96766.69;4989816;28;20029;-64
2022/08/24 03:58:49;;;;;;;10.40;5.45;;;;;;;12.37;100.00;96766.75;4983834;28;20122;-64
2022/08/24 04:01:16;;;;;;;10.68;6.13;;;;;;;12.48;100.00;96774.28;4994980;28;20097;-64
2022/08/24 04:03:43;;;;;;;9.13;5.90;;;;;;;12.27;100.00;96772.91;4993830;28;20142;-64
2022/08/24 04:06:11;;;;;;;8.35;5.63;;;;;;;12.32;100.00;96771.81;4991938;28;20034;-64
2022/08/24 04:08:37;;;;;;;11.43;6.00;;;;;;;12.33;100.00;96773.38;4993000;28;20039;-64
2022/08/24 04:11:03;;;;;;;8.27;5.88;;;;;;;12.32;100.00;96775.31;4993986;28;20045;-65
2022/08/24 04:13:30;;;;;;;8.07;5.78;;;;;;;12.34;100.00;96778.47;4990616;28;20084;-64
2022/08/24 04:15:56;;;;;;;8.82;6.25;;;;;;;12.31;100.00;96772.94;4977910;28;20496;-64
2022/08/24 04:18:22;;;;;;;13.00;6.45;;;;;;;12.34;100.00;96772.22;4976750;28;20046;-62
2022/08/24 04:20:47;;;;;;;8.23;6.15;;;;;;;12.49;100.00;96773.91;4976807;28;20038;-64
2022/08/24 04:23:14;;;;;;;7.88;6.20;;;;;;;12.52;100.00;96769.66;4976520;28;20701;-64
2022/08/24 04:25:45;;;;;;;7.93;5.70;;;;;;;12.53;100.00;96769.28;4974670;28;20066;-64
2022/08/24 04:28:13;;;;;;;11.57;6.50;;;;;;;12.55;100.00;96775.19;4976119;28;20035;-62
2022/08/24 04:30:43;;;;;;;10.77;6.15;;;;;;;12.54;100.00;96779.06;4976163;28;20690;-61
2022/08/24 04:33:10;;;;;;;8.43;6.30;;;;;;;12.59;100.00;96783.44;4975728;28;20041;-62
2022/08/24 04:35:38;;;;;;;9.00;6.13;;;;;;;12.59;100.00;96783.44;4975743;28;20046;-63
2022/08/24 04:38:04;;;;;;;11.13;6.80;;;;;;;12.56;100.00;96786.94;4975813;28;20105;-62
2022/08/24 04:40:30;;;;;;;7.93;6.45;;;;;;;12.58;100.00;96790.88;4974253;28;20089;-63
2022/08/24 04:42:57;;;;;;;7.28;5.80;;;;;;;12.77;100.00;96787.16;4983866;28;20035;-62
2022/08/24 04:45:24;;;;;;;10.35;5.80;;;;;;;12.78;100.00;96787.94;4994718;28;20480;-62
2022/08/24 04:47:49;;;;;;;12.05;5.32;;;;;;;12.73;100.00;96797.31;4995273;28;20049;-63
2022/08/24 04:50:14;;;;;;;8.27;5.47;;;;;;;12.73;100.00;96793.78;4996347;28;20030;-64
2022/08/24 04:52:40;;;;;;;8.07;5.18;;;;;;;12.72;100.00;96798.47;4996329;28;20396;-64
2022/08/24 04:55:06;;;;;;;20.65;5.97;;;;;;;12.75;100.00;96796.94;4993360;28;20069;-64
2022/08/24 04:57:32;;;;;;;8.70;5.28;;;;;;;12.90;100.00;96795.91;4983354;28;20077;-62
2022/08/24 04:59:58;;;;;;;8.60;5.28;;;;;;;12.67;100.00;96807.06;4993926;28;20049;-61
2022/08/24 05:02:25;;;;;;;9.85;5.90;;;;;;;12.78;100.00;96807.16;4982882;28;20030;-62
2022/08/24 05:04:50;;;;;;;6.47;5.75;;;;;;;12.96;100.00;96801.84;4993430;28;20113;-62
2022/08/24 05:07:17;;;;;;;9.32;5.13;;;;;;;13.14;100.00;96807.47;4993541;28;20062;-64
2022/08/24 05:09:43;;;;;;;8.00;5.30;;;;;;;13.19;100.00;96801.63;4981711;28;20034;-63
2022/08/24 05:12:10;;;;;;;5.72;4.70;;;;;;;13.44;100.00;96812.84;4982472;28;20031;-64
2022/08/24 05:14:36;;;;;;;7.78;5.55;;;;;;;13.20;100.00;96811.47;4987107;28;20042;-63
2022/08/24 05:17:02;;;;;;;8.52;5.22;;;;;;;13.72;100.00;96815.00;4985310;28;20045;-64
2022/08/24 05:19:27;;;;;;;7.78;4.50;;;;;;;15.44;100.00;96813.84;4999323;28;20050;-64
2022/08/24 05:21:52;;;;;;;5.85;4.20;;;;;;;17.04;100.00;96821.94;5002564;28;20057;-64
2022/08/24 05:24:18;;;;;;;6.07;3.55;;;;;;;18.12;96.38;96818.22;4994922;28;20031;-64
2022/08/24 05:26:44;;;;;;;4.82;2.97;;;;;;;19.28;91.59;96818.22;4994468;28;20513;-65
2022/08/24 05:29:10;;;;;;;6.30;3.03;;;;;;;20.84;80.14;96823.25;4996430;28;20034;-64
2022/08/24 05:31:36;;;;;;;4.32;3.00;;;;;;;22.04;74.27;96816.31;4973652;28;20073;-63
2022/08/24 05:34:02;;;;;;;5.45;2.72;;;;;;;23.16;67.93;96819.50;4995038;28;20133;-62
2022/08/24 05:36:31;;;;;;;8.98;3.42;;;;;;;20.52;75.24;96821.91;4993838;28;20038;-64
2022/08/24 05:38:59;;;;;;;5.68;2.97;;;;;;;21.35;75.39;96818.03;4994345;28;20121;-63
2022/08/24 05:41:26;;;;;;;6.07;2.80;;;;;;;21.39;74.16;96824.34;4993787;28;20105;-63
2022/08/24 05:43:52;;;;;;;4.22;2.58;;;;;;;22.30;71.06;96823.59;4990357;28;20071;-63
2022/08/24 05:46:18;;;;;;;4.95;3.03;;;;;;;20.59;76.50;96818.19;4983159;28;20514;-64
2022/08/24 05:48:43;;;;;;;3.63;2.80;;;;;;;19.84;81.63;96826.81;4977009;28;20034;-64
2022/08/24 05:51:10;;;;;;;5.28;2.88;;;;;;;20.22;80.18;96822.91;4981657;28;20050;-64
2022/08/24 05:53:37;;;;;;;8.93;2.80;;;;;;;22.28;74.03;96819.69;4990007;28;20088;-67
2022/08/24 05:56:08;;;;;;;4.57;3.03;;;;;;;21.64;75.72;96822.16;4991205;28;20061;-65
2022/08/24 05:58:35;;;;;;;5.47;2.72;;;;;;;20.48;80.10;96834.34;4981644;28;20093;-64
2022/08/24 06:01:09;;;;;;;7.22;3.10;;;;;;;22.32;72.76;96834.31;4984387;28;20030;-64
2022/08/24 06:03:35;;;;;;;5.03;2.60;;;;;;;24.42;61.99;96841.97;4992601;28;20034;-63
2022/08/24 06:06:02;;;;;;;6.88;2.58;;;;;;;25.96;51.65;96840.00;4986274;28;20042;-63
2022/08/24 06:08:28;;;;;;;8.68;2.90;;;;;;;26.93;46.28;96830.09;4985488;28;20376;-63
2022/08/24 06:10:54;;;;;;;4.70;3.10;;;;;;;27.77;43.87;96836.91;4993760;28;20034;-63
2022/08/24 06:13:20;;;;;;;6.28;3.30;;;;;;;28.08;42.32;96838.59;4991678;28;20030;-66
2022/08/24 06:15:45;;;;;;;7.20;3.30;;;;;;;27.59;42.60;96837.03;4961290;28;20093;-66
2022/08/24 06:18:11;;;;;;;6.00;3.10;;;;;;;26.80;44.95;96844.34;4959791;28;20042;-66
2022/08/24 06:20:39;;;;;;;7.30;3.50;;;;;;;26.70;45.43;96843.59;4970273;28;20149;-64
2022/08/24 06:23:05;;;;;;;8.10;2.63;;;;;;;28.34;43.03;96833.22;4959956;28;20488;-66
2022/08/24 06:28:14;;;;;;;5.07;2.58;;;;;;;30.10;38.14;96846.00;4958832;28;20101;-64
2022/08/24 06:30:41;;;;;;;5.30;2.60;;;;;;;30.31;37.95;96849.59;4963936;28;20491;-65
2022/08/24 06:33:08;;;;;;;5.55;2.60;;;;;;;30.37;37.56;96849.69;4959307;28;20496;-64
2022/08/24 06:35:33;;;;;;;6.30;2.53;;;;;;;30.21;37.34;96847.41;4970330;28;20046;-65
2022/08/24 06:37:59;;;;;;;8.05;2.63;;;;;;;30.28;36.94;96853.41;4982295;28;20045;-66
2022/08/24 06:40:25;;;;;;;5.95;2.92;;;;;;;29.14;39.25;96858.75;4978669;28;20383;-64
2022/08/24 06:42:50;;;;;;;6.40;2.58;;;;;;;29.93;37.84;96857.09;4983045;28;20181;-63
2022/08/24 06:45:16;;;;;;;4.50;2.30;;;;;;;30.43;38.16;96858.22;4978779;28;20547;-64
2022/08/24 06:47:41;;;;;;;8.68;2.13;;;;;;;30.08;37.95;96859.09;4973588;28;20057;-64
2022/08/24 06:50:07;;;;;;;7.53;2.38;;;;;;;28.73;41.98;96854.94;4968332;28;20048;-64
2022/08/24 06:52:34;;;;;;;4.97;2.67;;;;;;;28.69;42.35;96855.13;4982896;28;20046;-64
2022/08/24 06:55:00;;;;;;;5.32;2.53;;;;;;;29.88;39.98;96860.63;4983024;28;20038;-65
2022/08/24 06:57:26;;;;;;;5.78;3.05;;;;;;;30.56;38.91;96857.84;4977442;28;20046;-65
2022/08/24 06:59:51;;;;;;;9.20;2.40;;;;;;;30.22;39.66;96861.06;4983165;28;20047;-65
2022/08/24 07:02:18;;;;;;;3.42;2.05;;;;;;;31.00;39.08;96862.41;4968283;28;20042;-64
2022/08/24 07:04:44;;;;;;;5.53;2.10;;;;;;;32.37;35.37;96863.53;4971921;28;20074;-65
2022/08/24 07:07:10;;;;;;;5.68;2.00;;;;;;;33.33;33.32;96872.25;4957318;28;20049;-65
2022/08/24 07:09:38;;;;;;;4.03;1.92;;;;;;;30.10;37.79;96868.59;4963614;28;20136;-64
2022/08/24 07:12:04;;;;;;;6.05;2.63;;;;;;;29.19;40.90;96870.59;4972074;28;20034;-62
2022/08/24 07:14:29;;;;;;;4.30;2.92;;;;;;;30.72;38.80;96873.41;4983202;28;20056;-64
2022/08/24 07:16:55;;;;;;;3.95;2.60;;;;;;;32.10;34.78;96872.72;4982887;28;20062;-67
2022/08/24 07:19:21;;;;;;;5.97;1.80;;;;;;;32.05;33.14;96868.56;4965413;28;20085;-67
2022/08/24 07:21:47;;;;;;;5.30;2.20;;;;;;;30.67;38.45;96864.41;4978057;28;20132;-66
2022/08/24 07:24:12;;;;;;;8.07;2.25;;;;;;;24.68;48.46;96860.69;4977740;28;20053;-66
2022/08/24 07:26:38;;;;;;;3.67;2.17;;;;;;;23.09;54.85;96862.41;4982816;28;20073;-64
2022/08/24 07:29:09;;;;;;;4.57;2.50;;;;;;;22.68;58.88;96864.00;4983508;28;20565;-63
2022/08/24 07:31:37;;;;;;;5.55;2.70;;;;;;;23.75;52.69;96861.88;4977657;28;20488;-66
2022/08/24 07:34:05;;;;;;;3.85;2.58;;;;;;;22.77;56.52;96860.56;4974353;28;20112;-65
2022/08/24 07:36:32;;;;;;;4.70;2.40;;;;;;;22.04;56.92;96852.56;4982719;28;20096;-65
2022/08/24 07:38:57;;;;;;;5.68;3.22;;;;;;;22.21;58.73;96859.69;4983349;28;20038;-65
2022/08/24 07:41:27;;;;;;;9.25;2.60;;;;;;;22.43;58.83;96859.91;4977394;28;20437;-64
2022/08/24 07:43:53;;;;;;;;;;;;;;;23.08;56.09;96858.03;4983793;28;20050;-65
2022/08/24 07:46:18;;;;;;;6.85;3.00;;;;;;;22.27;58.86;96855.19;4969482;28;19952;-65
2022/08/24 07:48:44;;;;;;;7.18;3.03;;;;;;;22.51;58.48;96854.91;4973846;28;20502;-65
2022/08/24 07:51:15;;;;;;;7.22;2.95;;;;;;;22.60;60.28;96855.03;4978033;28;20120;-65
2022/08/24 07:53:41;;;;;;;7.13;2.90;;;;;;;22.51;59.27;96860.50;4980150;28;20035;-65
2022/08/24 07:56:07;;;;;;;5.40;2.88;;;;;;;23.44;57.37;96856.91;4962947;28;20042;-65
2022/08/24 07:58:33;;;;;;;3.92;2.58;;;;;;;22.65;57.36;96859.28;4978119;28;20053;-66
2022/08/24 08:00:59;;;;;;;6.05;2.45;;;;;;;22.45;58.75;96856.66;4981696;28;20043;-66
2022/08/24 08:03:26;;;;;;;4.57;2.60;;;;;;;22.89;56.44;96865.38;4977051;28;20054;-65
2022/08/24 08:05:56;;;;;;;8.13;2.95;;;;;;;23.72;54.73;96857.97;4975111;28;20106;-64
2022/08/24 08:08:22;;;;;;;6.53;2.58;;;;;;;23.55;54.03;96864.94;4970939;28;20153;-64
2022/08/24 08:10:48;;;;;;;4.85;2.50;;;;;;;22.71;57.01;96868.69;4981951;28;20177;-65
2022/08/24 08:13:14;;;;;;;5.50;2.60;;;;;;;23.15;54.15;96863.41;4976873;28;20049;-65
2022/08/24 08:15:40;;;;;;;7.15;2.78;;;;;;;22.83;56.12;96870.72;4982204;28;20073;-65
2022/08/24 08:18:06;;;;;;;4.88;2.97;;;;;;;24.38;52.34;96868.53;4976796;28;20042;-63
2022/08/24 08:20:31;;;;;;;5.22;2.35;;;;;;;24.79;51.91;96867.47;4975175;28;20061;-65
2022/08/24 08:25:47;;;;;;;4.90;2.47;;;;;;;24.84;50.36;96871.66;4975640;28;20041;-64
2022/08/24 08:28:12;;;;;;;7.60;2.67;;;;;;;24.78;50.52;96867.91;4960642;28;20059;-63
2022/08/24 08:30:40;;;;;;;5.22;2.20;;;;;;;25.46;49.51;96867.31;4971166;28;20077;-63
2022/08/24 08:33:06;;;;;;;3.85;2.28;;;;;;;25.99;47.71;96863.56;4957924;28;20077;-64
2022/08/24 08:35:32;;;;;;;4.82;2.50;;;;;;;25.19;51.54;96869.53;4962891;28;20428;-64
2022/08/24 08:37:58;;;;;;;14.20;2.22;;;;;;;24.91;50.06;96867.81;4963283;28;20038;-64
2022/08/24 08:40:44;;;;;;;6.35;2.13;;;;;;;25.36;48.37;96864.47;4956944;28;20926;-65
2022/08/24 08:43:38;;;;;;;8.23;2.28;;;;;;;24.67;50.51;96865.50;4973398;28;20034;-65
2022/08/24 08:46:41;;;;;;;6.75;2.20;;;;;;;27.18;45.30;96862.63;4955886;28;20051;-64
2022/08/24 08:49:22;;;;;;;3.90;2.17;;;;;;;25.71;48.05;96857.88;4958149;28;20043;-64
2022/08/24 08:52:00;;;;;;;3.35;1.80;;;;;;;25.94;48.46;96862.91;4969744;28;20065;-63
2022/08/24 08:54:43;;;;;;;6.47;2.25;;;;;;;24.84;47.25;96859.69;4958930;28;20049;-64
2022/08/24 08:57:38;;;;;;;5.93;2.25;;;;;;;25.78;48.57;96848.38;4961099;28;20634;-64
2022/08/24 09:00:07;;;;;;;5.20;2.15;;;;;;;25.43;50.16;96846.59;4963013;28;20074;-63
2022/08/24 09:03:21;;;;;;;3.00;1.88;;;;;;;25.96;46.78;96854.03;4965571;28;20077;-65
2022/08/24 09:06:16;;;;;;;2.50;1.70;;;;;;;26.64;46.19;96856.69;4956130;28;20070;-66
2022/08/24 09:09:09;;;;;;;4.80;1.80;;;;;;;27.41;42.86;96849.91;4965998;28;20078;-64
2022/08/24 09:11:57;;;;;;;2.60;1.50;;;;;;;25.71;44.81;96855.06;4964693;28;20039;-64
2022/08/24 09:14:46;;;;;;;4.25;1.90;;;;;;;25.98;44.73;96851.53;4961216;28;20697;-64
2022/08/24 09:17:17;;;;;;;5.82;2.33;;;;;;;24.98;46.27;96851.50;4966717;28;20650;-64
2022/08/24 09:20:21;;;;;;;3.67;1.83;;;;;;;24.99;47.80;96844.69;4973394;28;20082;-64
2022/08/24 09:23:01;;;;;;;4.93;1.85;;;;;;;25.78;44.98;96839.97;4965447;28;20049;-64
2022/08/24 09:25:34;;;;;;;4.05;1.80;;;;;;;25.51;44.68;96839.44;4961299;28;20217;-64
2022/08/24 09:28:27;;;;;;;4.05;1.67;;;;;;;25.17;44.32;96843.97;4965802;28;20475;-64
2022/08/24 09:31:17;;;;;;;3.55;1.80;;;;;;;25.89;43.11;96829.84;4966286;28;20050;-64
2022/08/24 09:34:19;;;;;;;4.25;1.67;;;;;;;25.54;44.80;96834.94;4975633;28;20042;-64
2022/08/24 09:37:01;;;;;;;3.90;1.55;;;;;;;25.84;44.70;96821.25;4988697;28;20137;-63
2022/08/24 09:39:54;;;;;;;4.03;1.65;;;;;;;25.83;45.61;96820.47;4979487;28;20141;-68
2022/08/24 09:42:25;;;;;;;3.22;1.40;;;;;;;26.40;44.04;96831.28;4978274;28;20038;-63
2022/08/24 09:44:56;;;;;;;4.22;1.50;;;;;;;25.89;43.05;96821.44;4977781;28;20663;-65
2022/08/24 09:48:10;;;;;;;4.45;1.42;;;;;;;25.85;41.43;96818.00;4979990;28;21756;-65
2022/08/24 09:50:57;;;;;;;3.80;1.30;;;;;;;25.66;42.81;96824.81;4991811;28;20042;-64
2022/08/24 09:53:47;;;;;;;3.78;1.50;;;;;;;25.98;42.72;96814.28;4967241;28;20327;-64
2022/08/24 09:56:52;;;;;;;11.43;1.65;;;;;;;26.07;43.70;96819.91;4979627;28;20049;-64
2022/08/24 09:59:49;;;;;;;4.90;1.55;;;;;;;25.88;44.05;96816.28;4968408;28;20034;-64
2022/08/24 10:02:42;;;;;;;2.85;1.50;;;;;;;25.61;43.34;96806.59;4978596;28;20050;-65
2022/08/24 10:05:30;;;;;;;5.53;1.45;;;;;;;26.45;43.52;96808.19;4970815;28;20042;-65
2022/08/24 10:08:24;;;;;;;2.92;1.38;;;;;;;26.07;40.57;96811.47;4976516;28;20042;-66
2022/08/24 10:11:09;;;;;;;3.10;1.58;;;;;;;26.85;42.12;96797.97;4982452;28;20542;-64
2022/08/24 10:13:56;;;;;;;2.90;1.50;;;;;;;26.87;40.16;96804.66;4984154;28;20046;-64
2022/08/24 10:16:42;;;;;;;3.63;1.45;;;;;;;26.65;43.66;96798.47;4979636;28;20046;-63
2022/08/24 10:19:40;;;;;;;4.30;1.20;;;;;;;26.64;41.04;96797.72;4974503;28;20035;-65
2022/08/24 10:22:27;;;;;;;3.42;1.30;;;;;;;27.32;41.98;96796.53;4967534;28;20131;-65
2022/08/24 10:25:01;;;;;;;4.57;1.00;;;;;;;26.37;38.64;96800.56;4963645;28;20069;-64
2022/08/24 10:27:44;;;;;;;2.75;1.00;;;;;;;25.69;38.55;96801.47;4960520;28;20043;-64
2022/08/24 10:30:13;;;;;;;2.80;1.15;;;;;;;25.71;39.08;96791.34;4961740;28;20130;-64
2022/08/24 10:33:12;;;;;;;5.57;1.23;;;;;;;26.11;38.90;96789.66;4964460;28;20039;-64
2022/08/24 10:35:50;;;;;;;3.85;1.20;;;;;;;25.82;38.81;96788.09;4967688;28;20043;-65
2022/08/24 10:41:19;;;;;;;2.03;1.00;;;;;;;25.69;40.03;96784.63;4960406;28;20058;-63
2022/08/24 10:44:08;;;;;;;3.45;1.00;;;;;;;25.86;36.07;96787.94;4959631;28;20173;-65
2022/08/24 10:46:56;;;;;;;3.40;1.83;;;;;;;26.01;36.85;96793.72;4970748;28;20046;-64
2022/08/24 10:49:34;;;;;;;3.78;1.30;;;;;;;26.09;36.53;96792.94;4940547;28;20632;-65
2022/08/24 10:52:18;;;;;;;2.33;1.02;;;;;;;26.43;36.54;96788.19;4944692;28;20055;-64
2022/08/24 10:54:44;;;;;;;3.10;1.17;;;;;;;26.43;36.18;96779.78;4944254;28;20532;-63
2022/08/24 10:57:37;;;;;;;2.28;1.02;;;;;;;25.87;36.69;96787.44;4957573;28;20049;-64
2022/08/24 11:00:04;;;;;;;2.97;1.10;;;;;;;25.81;38.01;96791.34;4971072;28;20521;-64
2022/08/24 11:02:33;;;;;;;2.00;1.20;;;;;;;25.80;35.48;96779.31;4982775;28;20195;-64
2022/08/24 11:05:01;;;;;;;2.17;0.90;;;;;;;25.71;36.37;96776.53;4983741;28;20038;-64
2022/08/24 11:07:27;;;;;;;2.22;0.95;;;;;;;25.93;36.60;96785.63;4978218;28;20042;-64
2022/08/24 11:10:00;;;;;;;2.58;1.38;;;;;;;25.83;36.23;96786.06;4983154;28;20046;-64
2022/08/24 11:12:35;;;;;;;3.00;1.23;;;;;;;25.89;37.44;96782.16;4967567;28;20186;-64
2022/08/24 11:15:24;;;;;;;3.40;1.20;;;;;;;26.31;36.63;96781.53;4982326;28;20085;-64
2022/08/24 11:18:01;;;;;;;2.30;1.10;;;;;;;25.72;37.56;96786.50;4983779;28;20493;-64
2022/08/24 11:20:28;;;;;;;2.25;1.42;;;;;;;25.74;38.25;96784.00;4977691;28;20104;-64
2022/08/24 11:23:13;;;;;;;2.15;1.20;;;;;;;26.22;36.76;96789.97;4982509;28;20097;-64
2022/08/24 11:25:50;;;;;;;3.03;1.00;;;;;;;26.50;36.94;96782.25;4979644;28;20042;-65
2022/08/24 11:28:18;;;;;;;3.03;1.00;;;;;;;26.54;37.56;96770.84;4951442;28;20108;-65
2022/08/24 11:30:44;;;;;;;6.47;1.23;;;;;;;26.51;35.44;96766.22;4984839;28;20047;-65
2022/08/24 11:33:27;;;;;;;3.92;1.08;;;;;;;26.31;36.74;96775.16;4977414;28;20042;-65
2022/08/24 11:35:53;;;;;;;4.68;1.25;;;;;;;26.27;35.54;96771.69;4984939;28;20113;-63
2022/08/24 11:38:24;;;;;;;1.48;1.00;;;;;;;26.58;36.79;96763.06;4982784;28;20077;-66
2022/08/24 11:40:55;;;;;;;1.63;1.00;;;;;;;26.54;36.10;96767.28;4977429;28;20046;-64
2022/08/24 11:43:48;;;;;;;2.65;0.75;;;;;;;26.36;36.20;96768.88;4968132;28;20058;-64
2022/08/24 11:46:57;;;;;;;2.78;1.15;;;;;;;26.39;36.74;96767.16;4959372;28;20050;-63
2022/08/24 11:49:38;;;;;;;1.85;0.90;;;;;;;26.22;36.61;96777.97;4952777;28;20271;-63
2022/08/24 11:52:22;;;;;;;4.20;1.10;;;;;;;26.27;36.63;96768.88;4967522;28;20054;-65
2022/08/24 11:54:51;;;;;;;2.05;1.20;;;;;;;26.37;35.86;96770.44;4980693;28;20082;-65
2022/08/24 11:57:25;;;;;;;3.28;0.90;;;;;;;26.26;34.73;96770.94;4978464;28;20042;-64